Lewisport, KY

3:50 AM CDT on September 28, 2016 (GMT -0500)
KKYPHILP1 | | Change Station

Elev 482 ft 37.74 °N, 86.95 °W | Updated 1 minute ago

Clear
Clear
59.0 °F
Feels Like 59.0 °F
N
0.9
Wind Variable Wind from South
Gusts 3.0 mph

Today
High -- | Low -- °F
--% Chance of Precip.
Yesterday
High -- | Low -- °F
Precip. -- in
Pressure 29.86 in
Visibility 10.0 miles
Clouds Clear
Dew Point 53 °F
Humidity 81%
Rainfall 0.00 in
Snow Depth Not available.
6:41 AM 6:34 PM
Waning Crescent, 7% visible
METAR KOWB 280756Z AUTO 17005KT 10SM CLR 14/11 A2986 RMK AO2 SLPNO T01390106
Pressure 29.86 in
Visibility 10.0 miles
Clouds Clear
Dew Point 53 °F
Humidity 81%
Rainfall 0.00 in
Snow Depth Not available.
6:41 AM 6:34 PM
Waning Crescent, 7% visible
METAR KOWB 280756Z AUTO 17005KT 10SM CLR 14/11 A2986 RMK AO2 SLPNO T01390106

10-Day Weather Forecast

Almanac

Astronomy

Sep. 28, 2016 Rise Set
Actual Time
Civil Twilight
Nautical Twilight
Astronomical Twilight
Moon
Length of Visible Light
Length of Day
Tomorrow will be .
, % of the Moon is Illuminated

Today's Extremes

State Highs State Lows

Community

WunderPhotos

Upload Photos

1,942,216 photos uploaded!

WunderBlog® & News

Nearby

Air Quality

  Air Quality AQ Index Pollutant
Not available.

Snow Depth

Station Depth Elevation

Earthquake Activity

City Distance Mag. Time & Date
Minimum magnitude displayed is 2.5.

Coastal Water Temperatures

Place Temperature

Stations

Nearby Weather Stations

Station Location Temp. Windchill Dew Point Humidity Wind Precip. Elev Updated Type
                   

Watches & Warnings

There are currently no watches in effect.